sensor_id;sensor_type;location;lat;lon;timestamp;P1;durP1;ratioP1;P2;durP2;ratioP2
38725;SDS011;24474;48.906;8.808;2022-07-23T00:01:41;7.35;;;5.30;;
38725;SDS011;24474;48.906;8.808;2022-07-23T00:04:07;5.80;;;4.90;;
38725;SDS011;24474;48.906;8.808;2022-07-23T00:06:32;7.88;;;5.40;;
38725;SDS011;24474;48.906;8.808;2022-07-23T00:08:58;6.93;;;5.18;;
38725;SDS011;24474;48.906;8.808;2022-07-23T00:11:23;6.35;;;4.97;;
38725;SDS011;24474;48.906;8.808;2022-07-23T00:13:49;6.30;;;5.15;;
38725;SDS011;24474;48.906;8.808;2022-07-23T00:16:15;7.32;;;5.15;;
38725;SDS011;24474;48.906;8.808;2022-07-23T00:18:41;6.45;;;4.88;;
38725;SDS011;24474;48.906;8.808;2022-07-23T00:21:08;5.82;;;4.68;;
38725;SDS011;24474;48.906;8.808;2022-07-23T00:23:35;6.88;;;5.07;;
38725;SDS011;24474;48.906;8.808;2022-07-23T00:26:00;6.38;;;4.72;;
38725;SDS011;24474;48.906;8.808;2022-07-23T00:28:28;5.68;;;5.07;;
38725;SDS011;24474;48.906;8.808;2022-07-23T00:30:53;7.57;;;4.65;;
38725;SDS011;24474;48.906;8.808;2022-07-23T00:33:19;6.18;;;4.82;;
38725;SDS011;24474;48.906;8.808;2022-07-23T00:35:45;7.20;;;4.72;;
38725;SDS011;24474;48.906;8.808;2022-07-23T00:38:10;6.28;;;4.57;;
38725;SDS011;24474;48.906;8.808;2022-07-23T00:40:36;7.47;;;4.88;;
38725;SDS011;24474;48.906;8.808;2022-07-23T00:43:04;6.93;;;4.97;;
38725;SDS011;24474;48.906;8.808;2022-07-23T00:45:32;5.32;;;4.60;;
38725;SDS011;24474;48.906;8.808;2022-07-23T00:47:58;8.75;;;4.95;;
38725;SDS011;24474;48.906;8.808;2022-07-23T00:50:24;7.20;;;4.70;;
38725;SDS011;24474;48.906;8.808;2022-07-23T00:52:51;8.82;;;5.07;;
38725;SDS011;24474;48.906;8.808;2022-07-23T00:55:18;8.93;;;5.28;;
38725;SDS011;24474;48.906;8.808;2022-07-23T00:57:45;7.43;;;5.10;;
38725;SDS011;24474;48.906;8.808;2022-07-23T01:00:13;6.50;;;4.60;;
38725;SDS011;24474;48.906;8.808;2022-07-23T01:02:39;6.88;;;4.97;;
38725;SDS011;24474;48.906;8.808;2022-07-23T01:05:06;6.68;;;4.82;;
38725;SDS011;24474;48.906;8.808;2022-07-23T01:07:32;7.10;;;5.13;;
38725;SDS011;24474;48.906;8.808;2022-07-23T01:09:58;6.60;;;4.93;;
38725;SDS011;24474;48.906;8.808;2022-07-23T01:12:25;6.97;;;5.22;;
38725;SDS011;24474;48.906;8.808;2022-07-23T01:14:59;6.47;;;4.95;;
38725;SDS011;24474;48.906;8.808;2022-07-23T01:17:25;6.35;;;4.95;;
38725;SDS011;24474;48.906;8.808;2022-07-23T01:19:51;8.77;;;4.72;;
38725;SDS011;24474;48.906;8.808;2022-07-23T01:22:19;8.07;;;4.85;;
38725;SDS011;24474;48.906;8.808;2022-07-23T01:24:45;5.78;;;4.40;;
38725;SDS011;24474;48.906;8.808;2022-07-23T01:27:11;6.70;;;5.03;;
38725;SDS011;24474;48.906;8.808;2022-07-23T01:29:37;6.15;;;4.32;;
38725;SDS011;24474;48.906;8.808;2022-07-23T01:32:04;6.47;;;4.72;;
38725;SDS011;24474;48.906;8.808;2022-07-23T01:34:30;6.93;;;4.90;;
38725;SDS011;24474;48.906;8.808;2022-07-23T01:36:56;5.93;;;4.47;;
38725;SDS011;24474;48.906;8.808;2022-07-23T01:39:24;6.57;;;4.65;;
38725;SDS011;24474;48.906;8.808;2022-07-23T01:41:50;6.93;;;4.22;;
38725;SDS011;24474;48.906;8.808;2022-07-23T01:44:17;5.70;;;4.20;;
38725;SDS011;24474;48.906;8.808;2022-07-23T01:46:43;7.78;;;4.05;;
38725;SDS011;24474;48.906;8.808;2022-07-23T01:49:08;5.50;;;3.92;;
38725;SDS011;24474;48.906;8.808;2022-07-23T01:51:35;7.32;;;4.40;;
38725;SDS011;24474;48.906;8.808;2022-07-23T01:54:00;5.75;;;3.97;;
38725;SDS011;24474;48.906;8.808;2022-07-23T01:56:26;6.10;;;4.00;;
38725;SDS011;24474;48.906;8.808;2022-07-23T01:58:51;8.20;;;4.30;;
38725;SDS011;24474;48.906;8.808;2022-07-23T02:01:18;7.18;;;4.20;;
38725;SDS011;24474;48.906;8.808;2022-07-23T02:03:44;6.90;;;4.05;;
38725;SDS011;24474;48.906;8.808;2022-07-23T02:06:10;4.78;;;3.70;;
38725;SDS011;24474;48.906;8.808;2022-07-23T02:08:36;6.65;;;3.85;;
38725;SDS011;24474;48.906;8.808;2022-07-23T02:11:01;5.43;;;3.92;;
38725;SDS011;24474;48.906;8.808;2022-07-23T02:13:27;5.60;;;4.22;;
38725;SDS011;24474;48.906;8.808;2022-07-23T02:15:54;5.53;;;3.85;;
38725;SDS011;24474;48.906;8.808;2022-07-23T02:18:21;5.60;;;4.03;;
38725;SDS011;24474;48.906;8.808;2022-07-23T02:20:51;4.90;;;3.72;;
38725;SDS011;24474;48.906;8.808;2022-07-23T02:23:17;7.05;;;3.90;;
38725;SDS011;24474;48.906;8.808;2022-07-23T02:25:44;5.90;;;4.20;;
38725;SDS011;24474;48.906;8.808;2022-07-23T02:28:11;7.68;;;3.83;;
38725;SDS011;24474;48.906;8.808;2022-07-23T02:30:36;5.05;;;3.33;;
38725;SDS011;24474;48.906;8.808;2022-07-23T02:33:03;7.70;;;3.83;;
38725;SDS011;24474;48.906;8.808;2022-07-23T02:35:30;6.10;;;3.92;;
38725;SDS011;24474;48.906;8.808;2022-07-23T02:37:55;4.97;;;3.85;;
38725;SDS011;24474;48.906;8.808;2022-07-23T02:40:21;6.43;;;3.85;;
38725;SDS011;24474;48.906;8.808;2022-07-23T02:42:47;5.03;;;3.50;;
38725;SDS011;24474;48.906;8.808;2022-07-23T02:45:12;4.90;;;3.80;;
38725;SDS011;24474;48.906;8.808;2022-07-23T02:47:39;6.07;;;3.83;;
38725;SDS011;24474;48.906;8.808;2022-07-23T02:50:05;5.55;;;3.78;;
38725;SDS011;24474;48.906;8.808;2022-07-23T02:52:32;7.07;;;3.75;;
38725;SDS011;24474;48.906;8.808;2022-07-23T02:54:57;5.18;;;3.63;;
38725;SDS011;24474;48.906;8.808;2022-07-23T02:57:25;5.32;;;3.60;;
38725;SDS011;24474;48.906;8.808;2022-07-23T02:59:51;6.57;;;3.80;;
38725;SDS011;24474;48.906;8.808;2022-07-23T03:02:16;5.60;;;4.18;;
38725;SDS011;24474;48.906;8.808;2022-07-23T03:04:42;5.78;;;3.60;;
38725;SDS011;24474;48.906;8.808;2022-07-23T03:07:08;6.47;;;3.90;;
38725;SDS011;24474;48.906;8.808;2022-07-23T03:09:33;5.60;;;4.07;;
38725;SDS011;24474;48.906;8.808;2022-07-23T03:11:59;4.85;;;3.67;;
38725;SDS011;24474;48.906;8.808;2022-07-23T03:14:25;5.20;;;3.90;;
38725;SDS011;24474;48.906;8.808;2022-07-23T03:16:54;4.90;;;3.90;;
38725;SDS011;24474;48.906;8.808;2022-07-23T03:19:20;5.22;;;4.00;;
38725;SDS011;24474;48.906;8.808;2022-07-23T03:21:45;4.97;;;3.60;;
38725;SDS011;24474;48.906;8.808;2022-07-23T03:24:12;5.43;;;3.97;;
38725;SDS011;24474;48.906;8.808;2022-07-23T03:26:38;7.25;;;4.00;;
38725;SDS011;24474;48.906;8.808;2022-07-23T03:29:12;4.53;;;3.67;;
38725;SDS011;24474;48.906;8.808;2022-07-23T03:31:37;8.40;;;4.20;;
38725;SDS011;24474;48.906;8.808;2022-07-23T03:34:03;8.45;;;4.60;;
38725;SDS011;24474;48.906;8.808;2022-07-23T03:36:30;4.75;;;3.78;;
38725;SDS011;24474;48.906;8.808;2022-07-23T03:38:56;5.22;;;3.60;;
38725;SDS011;24474;48.906;8.808;2022-07-23T03:41:22;5.45;;;3.88;;
38725;SDS011;24474;48.906;8.808;2022-07-23T03:43:52;4.65;;;3.78;;
38725;SDS011;24474;48.906;8.808;2022-07-23T03:46:18;5.07;;;4.00;;
38725;SDS011;24474;48.906;8.808;2022-07-23T03:48:44;6.65;;;4.05;;
38725;SDS011;24474;48.906;8.808;2022-07-23T03:51:10;7.03;;;4.20;;
38725;SDS011;24474;48.906;8.808;2022-07-23T03:53:35;5.13;;;4.20;;
38725;SDS011;24474;48.906;8.808;2022-07-23T03:56:02;4.75;;;3.60;;
38725;SDS011;24474;48.906;8.808;2022-07-23T03:58:28;4.97;;;3.80;;
38725;SDS011;24474;48.906;8.808;2022-07-23T04:00:54;7.90;;;4.20;;
38725;SDS011;24474;48.906;8.808;2022-07-23T04:03:20;5.43;;;4.10;;
38725;SDS011;24474;48.906;8.808;2022-07-23T04:05:46;8.95;;;4.28;;
38725;SDS011;24474;48.906;8.808;2022-07-23T04:08:13;5.35;;;4.10;;
38725;SDS011;24474;48.906;8.808;2022-07-23T04:10:39;4.60;;;3.95;;
38725;SDS011;24474;48.906;8.808;2022-07-23T04:13:05;5.15;;;4.20;;
38725;SDS011;24474;48.906;8.808;2022-07-23T04:15:30;5.88;;;4.30;;
38725;SDS011;24474;48.906;8.808;2022-07-23T04:17:56;5.43;;;4.43;;
38725;SDS011;24474;48.906;8.808;2022-07-23T04:20:21;5.63;;;4.22;;
38725;SDS011;24474;48.906;8.808;2022-07-23T04:22:47;5.78;;;4.30;;
38725;SDS011;24474;48.906;8.808;2022-07-23T04:25:14;7.63;;;4.72;;
38725;SDS011;24474;48.906;8.808;2022-07-23T04:27:44;9.75;;;4.93;;
38725;SDS011;24474;48.906;8.808;2022-07-23T04:30:10;7.13;;;4.75;;
38725;SDS011;24474;48.906;8.808;2022-07-23T04:32:36;5.25;;;4.40;;
38725;SDS011;24474;48.906;8.808;2022-07-23T04:35:03;7.60;;;5.10;;
38725;SDS011;24474;48.906;8.808;2022-07-23T04:37:32;7.07;;;4.63;;
38725;SDS011;24474;48.906;8.808;2022-07-23T04:40:00;7.30;;;4.40;;
38725;SDS011;24474;48.906;8.808;2022-07-23T04:42:26;5.78;;;4.63;;
38725;SDS011;24474;48.906;8.808;2022-07-23T04:44:52;6.20;;;4.65;;
38725;SDS011;24474;48.906;8.808;2022-07-23T04:47:17;8.38;;;4.57;;
38725;SDS011;24474;48.906;8.808;2022-07-23T04:49:43;6.65;;;4.63;;
38725;SDS011;24474;48.906;8.808;2022-07-23T04:52:09;5.25;;;4.40;;
38725;SDS011;24474;48.906;8.808;2022-07-23T04:54:35;7.28;;;4.30;;
38725;SDS011;24474;48.906;8.808;2022-07-23T04:57:02;7.13;;;4.80;;
38725;SDS011;24474;48.906;8.808;2022-07-23T04:59:27;6.15;;;4.57;;
38725;SDS011;24474;48.906;8.808;2022-07-23T05:01:53;5.20;;;4.15;;
38725;SDS011;24474;48.906;8.808;2022-07-23T05:04:18;4.70;;;3.90;;
38725;SDS011;24474;48.906;8.808;2022-07-23T05:06:44;6.07;;;4.28;;
38725;SDS011;24474;48.906;8.808;2022-07-23T05:09:10;5.88;;;4.38;;
38725;SDS011;24474;48.906;8.808;2022-07-23T05:11:37;5.82;;;4.53;;
38725;SDS011;24474;48.906;8.808;2022-07-23T05:14:04;6.32;;;4.30;;
38725;SDS011;24474;48.906;8.808;2022-07-23T05:16:30;5.65;;;4.15;;
38725;SDS011;24474;48.906;8.808;2022-07-23T05:18:56;4.93;;;3.95;;
38725;SDS011;24474;48.906;8.808;2022-07-23T05:21:23;5.57;;;4.30;;
38725;SDS011;24474;48.906;8.808;2022-07-23T05:23:49;7.30;;;4.57;;
38725;SDS011;24474;48.906;8.808;2022-07-23T05:26:14;8.18;;;4.38;;
38725;SDS011;24474;48.906;8.808;2022-07-23T05:28:41;6.22;;;4.20;;
38725;SDS011;24474;48.906;8.808;2022-07-23T05:31:07;7.53;;;4.30;;
38725;SDS011;24474;48.906;8.808;2022-07-23T05:33:33;5.30;;;3.85;;
38725;SDS011;24474;48.906;8.808;2022-07-23T05:36:03;5.80;;;4.05;;
38725;SDS011;24474;48.906;8.808;2022-07-23T05:38:29;5.32;;;3.95;;
38725;SDS011;24474;48.906;8.808;2022-07-23T05:40:55;7.15;;;4.13;;
38725;SDS011;24474;48.906;8.808;2022-07-23T05:43:22;7.50;;;4.30;;
38725;SDS011;24474;48.906;8.808;2022-07-23T05:45:48;6.38;;;4.13;;
38725;SDS011;24474;48.906;8.808;2022-07-23T05:48:14;6.00;;;3.92;;
38725;SDS011;24474;48.906;8.808;2022-07-23T05:50:40;5.43;;;4.38;;
38725;SDS011;24474;48.906;8.808;2022-07-23T05:53:05;5.15;;;3.97;;
38725;SDS011;24474;48.906;8.808;2022-07-23T05:55:31;6.82;;;4.20;;
38725;SDS011;24474;48.906;8.808;2022-07-23T05:57:58;7.78;;;4.28;;
38725;SDS011;24474;48.906;8.808;2022-07-23T06:00:24;6.95;;;4.20;;
38725;SDS011;24474;48.906;8.808;2022-07-23T06:02:50;6.43;;;4.68;;
38725;SDS011;24474;48.906;8.808;2022-07-23T06:05:18;7.07;;;4.63;;
38725;SDS011;24474;48.906;8.808;2022-07-23T06:07:44;6.90;;;4.43;;
38725;SDS011;24474;48.906;8.808;2022-07-23T06:10:11;5.90;;;4.20;;
38725;SDS011;24474;48.906;8.808;2022-07-23T06:12:37;6.72;;;4.53;;
38725;SDS011;24474;48.906;8.808;2022-07-23T06:15:03;7.28;;;4.75;;
38725;SDS011;24474;48.906;8.808;2022-07-23T06:17:29;4.93;;;4.22;;
38725;SDS011;24474;48.906;8.808;2022-07-23T06:19:56;6.45;;;4.55;;
38725;SDS011;24474;48.906;8.808;2022-07-23T06:22:23;7.68;;;4.50;;
38725;SDS011;24474;48.906;8.808;2022-07-23T06:24:50;6.05;;;4.88;;
38725;SDS011;24474;48.906;8.808;2022-07-23T06:27:17;6.97;;;4.72;;
38725;SDS011;24474;48.906;8.808;2022-07-23T06:29:43;7.00;;;5.22;;
38725;SDS011;24474;48.906;8.808;2022-07-23T06:32:09;8.70;;;5.38;;
38725;SDS011;24474;48.906;8.808;2022-07-23T06:34:36;12.68;;;6.38;;
38725;SDS011;24474;48.906;8.808;2022-07-23T06:37:02;15.15;;;6.57;;
38725;SDS011;24474;48.906;8.808;2022-07-23T06:39:28;9.90;;;6.20;;
38725;SDS011;24474;48.906;8.808;2022-07-23T06:41:54;10.05;;;5.93;;
38725;SDS011;24474;48.906;8.808;2022-07-23T06:44:19;8.23;;;5.40;;
38725;SDS011;24474;48.906;8.808;2022-07-23T06:46:45;9.73;;;5.97;;
38725;SDS011;24474;48.906;8.808;2022-07-23T06:49:10;10.68;;;6.13;;
38725;SDS011;24474;48.906;8.808;2022-07-23T06:51:36;8.70;;;6.10;;
38725;SDS011;24474;48.906;8.808;2022-07-23T06:54:02;10.45;;;6.90;;
38725;SDS011;24474;48.906;8.808;2022-07-23T06:56:29;9.40;;;5.70;;
38725;SDS011;24474;48.906;8.808;2022-07-23T06:58:54;10.07;;;5.88;;
38725;SDS011;24474;48.906;8.808;2022-07-23T07:01:20;8.40;;;6.15;;
38725;SDS011;24474;48.906;8.808;2022-07-23T07:03:46;7.78;;;5.63;;
38725;SDS011;24474;48.906;8.808;2022-07-23T07:06:12;6.72;;;5.53;;
38725;SDS011;24474;48.906;8.808;2022-07-23T07:08:38;7.20;;;5.93;;
38725;SDS011;24474;48.906;8.808;2022-07-23T07:11:03;8.50;;;6.00;;
38725;SDS011;24474;48.906;8.808;2022-07-23T07:13:29;8.65;;;5.70;;
38725;SDS011;24474;48.906;8.808;2022-07-23T07:15:55;11.77;;;6.88;;
38725;SDS011;24474;48.906;8.808;2022-07-23T07:18:21;9.50;;;6.00;;
38725;SDS011;24474;48.906;8.808;2022-07-23T07:20:46;7.72;;;5.85;;
38725;SDS011;24474;48.906;8.808;2022-07-23T07:23:12;9.95;;;6.78;;
38725;SDS011;24474;48.906;8.808;2022-07-23T07:25:38;10.40;;;6.85;;
38725;SDS011;24474;48.906;8.808;2022-07-23T07:28:04;8.50;;;5.80;;
38725;SDS011;24474;48.906;8.808;2022-07-23T07:30:29;7.28;;;5.57;;
38725;SDS011;24474;48.906;8.808;2022-07-23T07:32:55;9.07;;;6.55;;
38725;SDS011;24474;48.906;8.808;2022-07-23T07:35:21;8.15;;;6.90;;
38725;SDS011;24474;48.906;8.808;2022-07-23T07:37:46;10.63;;;6.85;;
38725;SDS011;24474;48.906;8.808;2022-07-23T07:40:15;8.68;;;5.80;;
38725;SDS011;24474;48.906;8.808;2022-07-23T07:42:47;7.43;;;6.25;;
38725;SDS011;24474;48.906;8.808;2022-07-23T07:45:14;10.85;;;7.07;;
38725;SDS011;24474;48.906;8.808;2022-07-23T07:47:40;6.22;;;5.35;;
38725;SDS011;24474;48.906;8.808;2022-07-23T07:50:07;8.48;;;5.72;;
38725;SDS011;24474;48.906;8.808;2022-07-23T07:52:34;6.13;;;5.25;;
38725;SDS011;24474;48.906;8.808;2022-07-23T07:55:06;7.53;;;5.65;;
38725;SDS011;24474;48.906;8.808;2022-07-23T07:57:34;6.73;;;5.77;;
38725;SDS011;24474;48.906;8.808;2022-07-23T08:00:04;7.10;;;5.00;;
38725;SDS011;24474;48.906;8.808;2022-07-23T08:02:41;8.05;;;5.90;;
38725;SDS011;24474;48.906;8.808;2022-07-23T08:05:08;8.50;;;6.05;;
38725;SDS011;24474;48.906;8.808;2022-07-23T08:07:34;9.13;;;6.63;;
38725;SDS011;24474;48.906;8.808;2022-07-23T08:10:00;6.55;;;5.25;;
38725;SDS011;24474;48.906;8.808;2022-07-23T08:12:26;8.15;;;5.60;;
38725;SDS011;24474;48.906;8.808;2022-07-23T08:14:52;8.25;;;5.70;;
38725;SDS011;24474;48.906;8.808;2022-07-23T08:17:17;7.40;;;5.75;;
38725;SDS011;24474;48.906;8.808;2022-07-23T08:19:43;7.22;;;6.03;;
38725;SDS011;24474;48.906;8.808;2022-07-23T08:22:09;8.35;;;6.05;;
38725;SDS011;24474;48.906;8.808;2022-07-23T08:24:34;8.73;;;5.63;;
38725;SDS011;24474;48.906;8.808;2022-07-23T08:27:00;6.68;;;5.55;;
38725;SDS011;24474;48.906;8.808;2022-07-23T08:29:26;6.60;;;5.40;;
38725;SDS011;24474;48.906;8.808;2022-07-23T08:31:51;8.32;;;5.57;;
38725;SDS011;24474;48.906;8.808;2022-07-23T08:34:17;6.18;;;5.13;;
38725;SDS011;24474;48.906;8.808;2022-07-23T08:36:43;9.02;;;5.20;;
38725;SDS011;24474;48.906;8.808;2022-07-23T08:39:08;8.32;;;5.57;;
38725;SDS011;24474;48.906;8.808;2022-07-23T08:41:34;6.97;;;5.53;;
38725;SDS011;24474;48.906;8.808;2022-07-23T08:44:00;7.07;;;4.47;;
38725;SDS011;24474;48.906;8.808;2022-07-23T08:46:26;7.57;;;4.55;;
38725;SDS011;24474;48.906;8.808;2022-07-23T08:48:52;7.13;;;5.40;;
38725;SDS011;24474;48.906;8.808;2022-07-23T08:51:19;6.35;;;4.47;;
38725;SDS011;24474;48.906;8.808;2022-07-23T08:53:45;5.85;;;4.70;;
38725;SDS011;24474;48.906;8.808;2022-07-23T08:56:12;4.53;;;3.80;;
38725;SDS011;24474;48.906;8.808;2022-07-23T08:58:38;6.13;;;4.45;;
38725;SDS011;24474;48.906;8.808;2022-07-23T09:01:04;5.65;;;4.55;;
38725;SDS011;24474;48.906;8.808;2022-07-23T09:03:31;6.40;;;4.20;;
38725;SDS011;24474;48.906;8.808;2022-07-23T09:05:58;5.75;;;4.30;;
38725;SDS011;24474;48.906;8.808;2022-07-23T09:08:36;6.15;;;4.72;;
38725;SDS011;24474;48.906;8.808;2022-07-23T09:11:04;5.82;;;4.10;;
38725;SDS011;24474;48.906;8.808;2022-07-23T09:13:49;8.15;;;5.18;;
38725;SDS011;24474;48.906;8.808;2022-07-23T09:18:53;7.93;;;5.10;;
38725;SDS011;24474;48.906;8.808;2022-07-23T09:28:59;6.63;;;4.75;;
38725;SDS011;24474;48.906;8.808;2022-07-23T09:36:46;6.53;;;5.20;;
38725;SDS011;24474;48.906;8.808;2022-07-23T09:39:14;7.68;;;5.22;;
38725;SDS011;24474;48.906;8.808;2022-07-23T09:41:43;6.35;;;5.10;;
38725;SDS011;24474;48.906;8.808;2022-07-23T09:44:13;5.88;;;5.15;;
38725;SDS011;24474;48.906;8.808;2022-07-23T09:46:41;6.50;;;5.00;;
38725;SDS011;24474;48.906;8.808;2022-07-23T09:49:18;6.70;;;5.30;;
38725;SDS011;24474;48.906;8.808;2022-07-23T09:54:35;7.93;;;5.30;;
38725;SDS011;24474;48.906;8.808;2022-07-23T09:57:07;6.78;;;4.78;;
38725;SDS011;24474;48.906;8.808;2022-07-23T09:59:39;6.22;;;4.70;;
38725;SDS011;24474;48.906;8.808;2022-07-23T10:02:06;6.72;;;4.90;;
38725;SDS011;24474;48.906;8.808;2022-07-23T10:04:34;6.53;;;4.85;;
38725;SDS011;24474;48.906;8.808;2022-07-23T10:07:04;5.68;;;4.65;;
38725;SDS011;24474;48.906;8.808;2022-07-23T10:09:35;6.30;;;4.75;;
38725;SDS011;24474;48.906;8.808;2022-07-23T10:12:04;6.50;;;4.80;;
38725;SDS011;24474;48.906;8.808;2022-07-23T10:14:46;7.75;;;4.80;;
38725;SDS011;24474;48.906;8.808;2022-07-23T10:17:12;6.10;;;4.38;;
38725;SDS011;24474;48.906;8.808;2022-07-23T10:19:38;5.55;;;4.15;;
38725;SDS011;24474;48.906;8.808;2022-07-23T10:22:06;7.10;;;4.43;;
38725;SDS011;24474;48.906;8.808;2022-07-23T10:35:22;7.05;;;4.35;;
38725;SDS011;24474;48.906;8.808;2022-07-23T10:37:57;6.07;;;4.28;;
38725;SDS011;24474;48.906;8.808;2022-07-23T10:40:32;6.57;;;4.20;;
38725;SDS011;24474;48.906;8.808;2022-07-23T10:42:58;5.35;;;4.05;;
38725;SDS011;24474;48.906;8.808;2022-07-23T10:45:33;6.30;;;4.00;;
38725;SDS011;24474;48.906;8.808;2022-07-23T10:51:06;6.38;;;4.32;;
38725;SDS011;24474;48.906;8.808;2022-07-23T10:59:30;5.55;;;4.45;;
38725;SDS011;24474;48.906;8.808;2022-07-23T11:02:42;5.18;;;4.03;;
38725;SDS011;24474;48.906;8.808;2022-07-23T11:04:52;6.30;;;4.70;;
38725;SDS011;24474;48.906;8.808;2022-07-23T11:07:18;6.85;;;4.97;;
38725;SDS011;24474;48.906;8.808;2022-07-23T11:09:47;8.43;;;5.20;;
38725;SDS011;24474;48.906;8.808;2022-07-23T11:20:12;7.88;;;4.85;;
38725;SDS011;24474;48.906;8.808;2022-07-23T11:25:10;7.13;;;4.50;;
38725;SDS011;24474;48.906;8.808;2022-07-23T11:27:41;8.50;;;5.13;;
38725;SDS011;24474;48.906;8.808;2022-07-23T11:32:39;7.07;;;4.78;;
38725;SDS011;24474;48.906;8.808;2022-07-23T11:35:25;8.25;;;4.53;;
38725;SDS011;24474;48.906;8.808;2022-07-23T11:37:53;5.97;;;4.47;;
38725;SDS011;24474;48.906;8.808;2022-07-23T11:40:27;7.45;;;4.97;;
38725;SDS011;24474;48.906;8.808;2022-07-23T11:42:57;6.65;;;4.45;;
38725;SDS011;24474;48.906;8.808;2022-07-23T11:45:29;7.22;;;4.35;;
38725;SDS011;24474;48.906;8.808;2022-07-23T11:48:00;5.80;;;4.28;;
38725;SDS011;24474;48.906;8.808;2022-07-23T11:50:26;5.68;;;4.38;;
38725;SDS011;24474;48.906;8.808;2022-07-23T11:52:52;6.85;;;4.72;;
38725;SDS011;24474;48.906;8.808;2022-07-23T11:55:19;5.32;;;4.35;;
38725;SDS011;24474;48.906;8.808;2022-07-23T11:57:45;5.95;;;4.15;;
38725;SDS011;24474;48.906;8.808;2022-07-23T12:00:12;6.78;;;4.60;;
38725;SDS011;24474;48.906;8.808;2022-07-23T12:02:44;5.80;;;4.43;;
38725;SDS011;24474;48.906;8.808;2022-07-23T12:05:11;6.10;;;4.50;;
38725;SDS011;24474;48.906;8.808;2022-07-23T12:07:42;6.10;;;4.45;;
38725;SDS011;24474;48.906;8.808;2022-07-23T12:15:18;5.25;;;4.03;;
38725;SDS011;24474;48.906;8.808;2022-07-23T12:17:47;5.82;;;4.32;;
38725;SDS011;24474;48.906;8.808;2022-07-23T12:20:15;8.30;;;4.32;;
38725;SDS011;24474;48.906;8.808;2022-07-23T12:22:43;5.57;;;4.40;;
38725;SDS011;24474;48.906;8.808;2022-07-23T12:25:18;6.75;;;4.40;;
38725;SDS011;24474;48.906;8.808;2022-07-23T12:27:57;7.65;;;5.07;;
38725;SDS011;24474;48.906;8.808;2022-07-23T12:30:55;6.40;;;4.80;;
38725;SDS011;24474;48.906;8.808;2022-07-23T12:33:25;6.95;;;4.90;;
38725;SDS011;24474;48.906;8.808;2022-07-23T12:35:57;6.10;;;4.72;;
38725;SDS011;24474;48.906;8.808;2022-07-23T12:38:25;9.25;;;4.70;;
38725;SDS011;24474;48.906;8.808;2022-07-23T12:40:52;12.07;;;5.28;;
38725;SDS011;24474;48.906;8.808;2022-07-23T12:43:32;5.78;;;4.60;;
38725;SDS011;24474;48.906;8.808;2022-07-23T12:46:08;7.82;;;5.30;;
38725;SDS011;24474;48.906;8.808;2022-07-23T12:48:36;7.65;;;4.65;;
38725;SDS011;24474;48.906;8.808;2022-07-23T12:51:20;5.75;;;4.35;;
38725;SDS011;24474;48.906;8.808;2022-07-23T12:53:53;7.88;;;4.57;;
38725;SDS011;24474;48.906;8.808;2022-07-23T12:56:39;6.07;;;5.10;;
38725;SDS011;24474;48.906;8.808;2022-07-23T12:59:15;7.38;;;4.82;;
38725;SDS011;24474;48.906;8.808;2022-07-23T13:04:18;5.93;;;4.57;;
38725;SDS011;24474;48.906;8.808;2022-07-23T13:06:46;5.82;;;4.38;;
38725;SDS011;24474;48.906;8.808;2022-07-23T13:09:13;5.53;;;3.95;;
38725;SDS011;24474;48.906;8.808;2022-07-23T13:11:41;5.32;;;4.13;;
38725;SDS011;24474;48.906;8.808;2022-07-23T13:14:08;5.78;;;4.10;;
38725;SDS011;24474;48.906;8.808;2022-07-23T13:16:34;5.75;;;4.28;;
38725;SDS011;24474;48.906;8.808;2022-07-23T13:19:00;7.20;;;4.50;;
38725;SDS011;24474;48.906;8.808;2022-07-23T13:21:26;6.43;;;4.40;;
38725;SDS011;24474;48.906;8.808;2022-07-23T13:23:53;7.20;;;4.53;;
38725;SDS011;24474;48.906;8.808;2022-07-23T13:26:19;5.78;;;3.92;;
38725;SDS011;24474;48.906;8.808;2022-07-23T13:28:45;7.10;;;4.30;;
38725;SDS011;24474;48.906;8.808;2022-07-23T13:31:11;4.40;;;3.92;;
38725;SDS011;24474;48.906;8.808;2022-07-23T13:33:36;6.28;;;4.65;;
38725;SDS011;24474;48.906;8.808;2022-07-23T13:36:02;6.07;;;4.25;;
38725;SDS011;24474;48.906;8.808;2022-07-23T13:38:28;8.00;;;4.70;;
38725;SDS011;24474;48.906;8.808;2022-07-23T13:40:54;5.85;;;4.97;;
38725;SDS011;24474;48.906;8.808;2022-07-23T13:43:22;5.53;;;4.53;;
38725;SDS011;24474;48.906;8.808;2022-07-23T13:45:49;6.65;;;4.53;;
38725;SDS011;24474;48.906;8.808;2022-07-23T13:48:16;5.68;;;4.45;;
38725;SDS011;24474;48.906;8.808;2022-07-23T13:50:43;6.43;;;4.90;;
38725;SDS011;24474;48.906;8.808;2022-07-23T13:53:11;5.95;;;4.43;;
38725;SDS011;24474;48.906;8.808;2022-07-23T13:55:45;7.20;;;5.00;;
38725;SDS011;24474;48.906;8.808;2022-07-23T13:58:13;8.20;;;4.78;;
38725;SDS011;24474;48.906;8.808;2022-07-23T14:00:41;6.03;;;4.78;;
38725;SDS011;24474;48.906;8.808;2022-07-23T14:03:09;5.68;;;4.78;;
38725;SDS011;24474;48.906;8.808;2022-07-23T14:05:35;5.57;;;4.18;;
38725;SDS011;24474;48.906;8.808;2022-07-23T14:08:01;5.80;;;4.38;;
38725;SDS011;24474;48.906;8.808;2022-07-23T14:10:27;7.97;;;4.88;;
38725;SDS011;24474;48.906;8.808;2022-07-23T14:12:53;6.07;;;4.38;;
38725;SDS011;24474;48.906;8.808;2022-07-23T14:15:21;6.28;;;4.50;;
38725;SDS011;24474;48.906;8.808;2022-07-23T14:17:47;6.47;;;4.65;;
38725;SDS011;24474;48.906;8.808;2022-07-23T14:20:13;6.30;;;4.65;;
38725;SDS011;24474;48.906;8.808;2022-07-23T14:22:39;7.53;;;4.78;;
38725;SDS011;24474;48.906;8.808;2022-07-23T14:25:06;7.50;;;4.80;;
38725;SDS011;24474;48.906;8.808;2022-07-23T14:27:34;7.05;;;4.60;;
38725;SDS011;24474;48.906;8.808;2022-07-23T14:30:00;6.15;;;4.55;;
38725;SDS011;24474;48.906;8.808;2022-07-23T14:32:26;6.13;;;4.65;;
38725;SDS011;24474;48.906;8.808;2022-07-23T14:34:52;6.60;;;4.95;;
38725;SDS011;24474;48.906;8.808;2022-07-23T14:37:18;6.53;;;4.85;;
38725;SDS011;24474;48.906;8.808;2022-07-23T14:39:44;6.43;;;5.03;;
38725;SDS011;24474;48.906;8.808;2022-07-23T14:42:10;7.25;;;4.93;;
38725;SDS011;24474;48.906;8.808;2022-07-23T14:44:37;5.78;;;4.68;;
38725;SDS011;24474;48.906;8.808;2022-07-23T14:47:03;6.88;;;4.70;;
38725;SDS011;24474;48.906;8.808;2022-07-23T14:49:33;5.75;;;4.60;;
38725;SDS011;24474;48.906;8.808;2022-07-23T14:51:59;6.40;;;4.80;;
38725;SDS011;24474;48.906;8.808;2022-07-23T14:54:26;6.88;;;4.93;;
38725;SDS011;24474;48.906;8.808;2022-07-23T14:56:54;6.35;;;4.95;;
38725;SDS011;24474;48.906;8.808;2022-07-23T14:59:21;6.15;;;4.65;;
38725;SDS011;24474;48.906;8.808;2022-07-23T15:01:47;6.75;;;4.90;;
38725;SDS011;24474;48.906;8.808;2022-07-23T15:04:13;6.25;;;4.40;;
38725;SDS011;24474;48.906;8.808;2022-07-23T15:06:38;9.88;;;4.63;;
38725;SDS011;24474;48.906;8.808;2022-07-23T15:09:04;5.55;;;4.22;;
38725;SDS011;24474;48.906;8.808;2022-07-23T15:11:31;7.75;;;4.78;;
38725;SDS011;24474;48.906;8.808;2022-07-23T15:13:59;8.23;;;4.70;;
38725;SDS011;24474;48.906;8.808;2022-07-23T15:16:25;6.10;;;4.75;;
38725;SDS011;24474;48.906;8.808;2022-07-23T15:18:51;7.55;;;4.60;;
38725;SDS011;24474;48.906;8.808;2022-07-23T15:21:17;7.45;;;4.85;;
38725;SDS011;24474;48.906;8.808;2022-07-23T15:23:42;7.10;;;4.97;;
38725;SDS011;24474;48.906;8.808;2022-07-23T15:26:08;5.70;;;4.65;;
38725;SDS011;24474;48.906;8.808;2022-07-23T15:28:34;5.53;;;4.53;;
38725;SDS011;24474;48.906;8.808;2022-07-23T15:31:00;6.15;;;4.38;;
38725;SDS011;24474;48.906;8.808;2022-07-23T15:33:27;7.63;;;4.47;;
38725;SDS011;24474;48.906;8.808;2022-07-23T15:35:52;9.60;;;5.15;;
38725;SDS011;24474;48.906;8.808;2022-07-23T15:38:21;7.00;;;4.60;;
38725;SDS011;24474;48.906;8.808;2022-07-23T15:40:47;7.07;;;4.50;;
38725;SDS011;24474;48.906;8.808;2022-07-23T15:43:13;5.80;;;4.53;;
38725;SDS011;24474;48.906;8.808;2022-07-23T15:45:39;5.88;;;4.13;;
38725;SDS011;24474;48.906;8.808;2022-07-23T15:48:05;5.15;;;3.90;;